Mullan Pass, MT

12:43 AM MDT on March 27, 2017 (GMT -0600)
Mullan Pass | | Change Station

Elev 6027 ft 47.45 °N, 115.68 °W | Updated 50 minutes ago

Light Snow
Light Snow Freezing Fog
30 °F
Feels Like 25 °F
N
5
Wind Variable Wind from South

Today
High -- | Low -- °F
--% Chance of Precip.
Yesterday
High -- | Low -- °F
Precip. -- in
Pressure 29.70 in
Visibility 0.2 miles
Clouds
Windchill 25 °F
Dew Point 30 °F
Humidity 100%
Rainfall 0.09 in
Snow Depth Not available.
7:30 AM 8:05 PM
Waning Crescent, 1% visible
METAR KMLP 270553Z AUTO 17004KT 1/4SM -SN FZFG VV001 M01/M01 A2977 RMK AO2 SNE18B34 SLP055 P0000 60009 T10111011 10006 21011 58002 $
Pressure 29.70 in
Visibility 0.2 miles
Clouds
Windchill 25 °F
Dew Point 30 °F
Humidity 100%
Rainfall 0.09 in
Snow Depth Not available.
7:30 AM 8:05 PM
Waning Crescent, 1% visible
METAR KMLP 270553Z AUTO 17004KT 1/4SM -SN FZFG VV001 M01/M01 A2977 RMK AO2 SNE18B34 SLP055 P0000 60009 T10111011 10006 21011 58002 $

Get Severe Weather Alerts

Thanks for signing up!

Be on the lookout for a verification email in your inbox.

You'll start receiving the daily forecast at 8 AM.

×

10-Day Weather Forecast

Almanac

Astronomy

Mar. 27, 2017 Rise Set
Actual Time
Civil Twilight
Nautical Twilight
Astronomical Twilight
Moon
Length of Visible Light
Length of Day
Tomorrow will be .
, % of the Moon is Illuminated

Today's Extremes

State Highs State Lows

Community

WunderPhotos

Upload Photos

1,962,540 photos uploaded!

WunderBlog® & News

Nearby

Air Quality

  Air Quality AQ Index Pollutant
Not available.

Snow Depth

Station Depth Elevation

Earthquake Activity

City Distance Mag. Time & Date
Minimum magnitude displayed is 2.5.

Earthquake Activity

City Distance Mag. Time & Date
Minimum magnitude displayed is 2.5.

Coastal Water Temperatures

Place Temperature

Stations

Nearby Weather Stations

Station Location Temp. Windchill Dew Point Humidity Wind Precip. Elev Updated Type
                   

Watches & Warnings

There are currently no watches in effect.